Time;durP1;ratioP1;P1;durP2;ratioP2;P2;SDS_P1;SDS_P2;PMS_P1;PMS_P2;Temp;Humidity;BMP_temperature;BMP_pressure;BME280_temperature;BME280_humidity;BME280_pressure;Samples;Min_cycle;Max_cycle;Signal;HPM_P1;HPM_P2
2024/01/27 00:00:14;;;;;;;21.15;6.03;;;4.30;99.90;;;;;;5140103;27;20067;-58
2024/01/27 00:02:39;;;;;;;18.08;5.75;;;4.10;99.90;;;;;;5140123;27;20027;-60
2024/01/27 00:05:06;;;;;;;16.67;5.80;;;4.20;99.90;;;;;;5140041;27;20404;-59
2024/01/27 00:07:31;;;;;;;14.90;5.65;;;4.20;99.90;;;;;;5122147;27;20035;-58
2024/01/27 00:09:59;;;;;;;15.82;5.45;;;4.20;99.90;;;;;;5140013;27;20042;-59
2024/01/27 00:12:25;;;;;;;17.63;4.85;;;4.00;99.90;;;;;;5139836;27;20015;-59
2024/01/27 00:14:50;;;;;;;13.25;4.50;;;3.90;99.90;;;;;;5140010;27;20058;-58
2024/01/27 00:17:16;;;;;;;12.35;4.90;;;3.90;99.90;;;;;;5139871;27;20341;-58
2024/01/27 00:19:42;;;;;;;15.80;4.03;;;3.80;99.90;;;;;;5139836;27;20027;-59
2024/01/27 00:22:09;;;;;;;15.75;4.72;;;3.80;99.90;;;;;;5122128;27;20035;-58
2024/01/27 00:24:35;;;;;;;12.23;5.13;;;3.90;99.90;;;;;;5139700;27;20302;-59
2024/01/27 00:27:01;;;;;;;14.75;5.55;;;4.00;99.90;;;;;;5139687;27;20027;-58
2024/01/27 00:29:27;;;;;;;16.23;4.88;;;4.00;99.90;;;;;;5121757;27;20035;-58
2024/01/27 00:31:54;;;;;;;13.60;4.45;;;4.00;99.90;;;;;;5139407;27;20059;-58
2024/01/27 00:34:20;;;;;;;15.55;5.15;;;4.10;99.90;;;;;;5139645;27;20030;-58
2024/01/27 00:36:48;;;;;;;9.98;4.10;;;4.00;99.80;;;;;;5139416;27;20090;-57
2024/01/27 00:39:18;;;;;;;12.70;4.47;;;3.90;99.90;;;;;;5139173;27;20051;-57
2024/01/27 00:41:44;;;;;;;11.93;4.53;;;3.80;99.90;;;;;;5139391;27;20448;-58
2024/01/27 00:44:10;;;;;;;11.43;4.30;;;3.80;99.90;;;;;;5139329;27;20081;-58
2024/01/27 00:46:39;;;;;;;11.30;3.90;;;3.80;99.90;;;;;;5121254;27;20134;-58
2024/01/27 00:49:06;;;;;;;14.07;4.15;;;3.80;99.90;;;;;;5139262;27;20034;-59
2024/01/27 00:51:32;;;;;;;15.98;4.60;;;3.80;99.90;;;;;;5139024;27;20023;-58
2024/01/27 00:53:58;;;;;;;14.20;4.20;;;3.80;99.90;;;;;;5139087;27;20020;-58
2024/01/27 00:56:24;;;;;;;15.07;4.50;;;3.80;99.90;;;;;;5138979;27;20110;-58
2024/01/27 00:58:49;;;;;;;11.57;3.88;;;3.80;99.90;;;;;;5138886;27;20027;-59
2024/01/27 01:01:15;;;;;;;13.13;4.55;;;3.80;99.90;;;;;;5138933;27;20336;-59
2024/01/27 01:03:41;;;;;;;15.15;4.53;;;3.80;99.90;;;;;;5120977;27;20031;-59
2024/01/27 01:06:07;;;;;;;12.65;4.15;;;3.80;99.90;;;;;;5121312;27;20087;-59
2024/01/27 01:08:32;;;;;;;17.77;4.45;;;3.70;99.90;;;;;;5120779;27;20042;-58
2024/01/27 01:10:58;;;;;;;11.88;4.00;;;3.70;99.90;;;;;;5138857;27;20031;-59
2024/01/27 01:13:24;;;;;;;9.63;4.18;;;3.70;99.90;;;;;;5138769;27;20050;-59
2024/01/27 01:15:50;;;;;;;9.77;3.85;;;3.60;99.90;;;;;;5138747;27;20019;-59
2024/01/27 01:18:16;;;;;;;9.98;4.50;;;3.60;99.90;;;;;;5138703;27;20034;-59
2024/01/27 01:20:42;;;;;;;13.10;4.13;;;3.70;99.90;;;;;;5138665;27;20031;-59
2024/01/27 01:23:07;;;;;;;9.27;3.83;;;3.70;99.90;;;;;;5138590;27;20023;-59
2024/01/27 01:25:33;;;;;;;8.57;3.90;;;3.80;99.90;;;;;;5120805;27;20059;-59
2024/01/27 01:27:59;;;;;;;11.82;4.30;;;3.80;99.90;;;;;;5138491;27;20129;-59
2024/01/27 01:30:25;;;;;;;9.38;4.05;;;3.80;99.90;;;;;;5138504;27;20038;-59
2024/01/27 01:32:51;;;;;;;9.98;3.97;;;3.80;99.90;;;;;;5138547;27;20046;-59
2024/01/27 01:35:17;;;;;;;9.82;4.60;;;3.90;99.90;;;;;;5138429;27;20291;-59
2024/01/27 01:37:43;;;;;;;11.55;3.95;;;3.90;99.90;;;;;;5138064;27;20039;-58
2024/01/27 01:40:09;;;;;;;8.20;3.88;;;3.90;99.90;;;;;;5138425;27;20063;-59
2024/01/27 01:42:35;;;;;;;16.05;4.30;;;3.90;99.90;;;;;;5138187;27;20414;-58
2024/01/27 01:45:01;;;;;;;9.98;4.30;;;4.00;99.90;;;;;;5138158;27;20108;-58
2024/01/27 01:47:27;;;;;;;8.68;3.90;;;4.00;99.90;;;;;;5138251;27;20434;-58
2024/01/27 01:49:55;;;;;;;9.27;4.53;;;3.90;99.90;;;;;;5138075;27;20051;-59
2024/01/27 01:52:21;;;;;;;13.20;4.55;;;3.90;99.90;;;;;;5138022;27;20046;-59
2024/01/27 01:54:49;;;;;;;10.15;4.75;;;3.90;99.90;;;;;;5138035;27;20421;-59
2024/01/27 01:57:15;;;;;;;9.63;5.28;;;3.80;99.90;;;;;;5138028;27;20035;-59
2024/01/27 01:59:42;;;;;;;13.38;4.45;;;3.80;99.90;;;;;;5120108;27;20051;-59
2024/01/27 02:02:08;;;;;;;11.35;4.78;;;3.60;99.90;;;;;;5120165;27;20302;-59
2024/01/27 02:04:45;;;;;;;16.95;5.38;;;3.60;99.90;;;;;;5137893;27;20031;-59
2024/01/27 02:07:11;;;;;;;15.32;5.10;;;3.50;99.90;;;;;;5137921;27;20019;-59
2024/01/27 02:09:37;;;;;;;11.77;5.22;;;3.50;99.90;;;;;;5120140;28;20027;-59
2024/01/27 02:12:04;;;;;;;13.82;4.15;;;3.40;99.90;;;;;;5137725;27;20023;-59
2024/01/27 02:14:30;;;;;;;11.60;4.50;;;3.40;99.90;;;;;;5137817;28;20042;-59
2024/01/27 02:16:56;;;;;;;10.32;4.68;;;3.40;99.90;;;;;;5137705;28;20114;-59
2024/01/27 02:19:22;;;;;;;13.20;4.28;;;3.40;99.90;;;;;;5137879;28;20039;-59
2024/01/27 02:21:48;;;;;;;11.20;4.35;;;3.50;99.90;;;;;;5140704;27;20572;-59
2024/01/27 02:24:14;;;;;;;10.75;4.60;;;3.50;99.90;;;;;;5124262;27;20110;-60
2024/01/27 02:26:40;;;;;;;14.20;4.78;;;3.50;99.90;;;;;;5107330;27;20049;-59
2024/01/27 02:29:05;;;;;;;11.07;4.50;;;3.50;99.90;;;;;;5141924;27;20119;-59
2024/01/27 02:31:31;;;;;;;12.60;5.18;;;3.40;99.90;;;;;;5142101;27;20043;-59
2024/01/27 02:33:57;;;;;;;12.10;5.07;;;3.40;99.90;;;;;;5141830;27;20039;-58
2024/01/27 02:36:23;;;;;;;14.00;4.82;;;3.40;99.90;;;;;;5124092;27;20458;-58
2024/01/27 02:38:49;;;;;;;11.93;4.38;;;3.40;99.90;;;;;;5141554;27;20150;-58
2024/01/27 02:41:14;;;;;;;15.98;5.25;;;3.50;99.90;;;;;;5141893;27;20035;-60
2024/01/27 02:43:40;;;;;;;16.20;5.10;;;3.60;99.90;;;;;;5141589;27;20392;-59
2024/01/27 02:46:12;;;;;;;11.85;4.45;;;3.60;99.90;;;;;;5124074;27;20106;-58
2024/01/27 02:48:44;;;;;;;13.98;4.82;;;3.50;99.90;;;;;;5141656;27;20306;-59
2024/01/27 02:51:10;;;;;;;17.27;5.75;;;3.50;99.90;;;;;;5141400;27;20074;-59
2024/01/27 02:53:36;;;;;;;10.57;5.28;;;3.60;99.90;;;;;;5141567;27;20336;-58
2024/01/27 02:56:02;;;;;;;12.70;4.63;;;3.60;99.90;;;;;;5141433;27;20039;-58
2024/01/27 02:58:28;;;;;;;13.07;4.80;;;3.50;99.90;;;;;;5141329;27;20365;-59
2024/01/27 03:00:53;;;;;;;14.82;4.78;;;3.50;99.90;;;;;;5141448;27;20405;-59
2024/01/27 03:03:19;;;;;;;15.80;5.10;;;3.50;99.90;;;;;;5141474;27;20117;-59
2024/01/27 03:05:45;;;;;;;8.25;4.85;;;3.50;99.90;;;;;;5141263;27;20035;-58
2024/01/27 03:08:11;;;;;;;10.77;5.10;;;3.50;99.90;;;;;;5141526;27;20058;-59
2024/01/27 03:10:36;;;;;;;19.50;5.60;;;3.50;99.90;;;;;;5141366;27;20023;-59
2024/01/27 03:13:02;;;;;;;12.43;5.15;;;3.50;99.90;;;;;;5141166;27;20023;-59
2024/01/27 03:15:28;;;;;;;14.75;4.85;;;3.50;99.90;;;;;;5123168;27;20064;-59
2024/01/27 03:17:54;;;;;;;12.18;4.90;;;3.50;99.90;;;;;;5141182;27;20023;-59
2024/01/27 03:20:20;;;;;;;12.73;5.15;;;3.40;99.90;;;;;;5122969;27;20031;-59
2024/01/27 03:22:46;;;;;;;14.38;5.32;;;3.50;99.90;;;;;;5140991;27;20169;-59
2024/01/27 03:25:11;;;;;;;12.93;5.18;;;3.50;99.90;;;;;;5140907;27;20035;-58
2024/01/27 03:27:37;;;;;;;16.20;5.93;;;3.60;99.90;;;;;;5140882;27;20046;-58
2024/01/27 03:30:04;;;;;;;14.77;5.55;;;3.50;99.90;;;;;;5140796;27;20054;-58
2024/01/27 03:32:33;;;;;;;12.45;4.70;;;3.30;99.90;;;;;;5141003;27;20023;-59
2024/01/27 03:35:00;;;;;;;11.23;5.05;;;3.30;99.90;;;;;;5140692;27;20035;-59
2024/01/27 03:37:26;;;;;;;13.48;5.40;;;3.30;99.90;;;;;;5140406;27;20023;-59
2024/01/27 03:39:52;;;;;;;8.55;5.18;;;3.30;99.90;;;;;;5140871;27;20023;-58
2024/01/27 03:42:18;;;;;;;11.80;5.35;;;3.30;99.90;;;;;;5122620;27;20035;-58
2024/01/27 03:44:44;;;;;;;12.32;5.25;;;3.30;99.90;;;;;;5140598;27;20049;-59
2024/01/27 03:47:10;;;;;;;14.38;5.80;;;3.30;99.90;;;;;;5122523;27;20118;-58
2024/01/27 03:49:36;;;;;;;18.77;5.15;;;3.30;99.90;;;;;;5140434;27;20055;-58
2024/01/27 03:52:02;;;;;;;14.93;5.32;;;3.30;99.90;;;;;;5140245;27;20050;-58
2024/01/27 03:54:28;;;;;;;11.07;5.07;;;3.20;99.90;;;;;;5140384;27;20046;-58
2024/01/27 03:56:54;;;;;;;18.98;6.18;;;3.20;99.90;;;;;;5140390;27;20031;-59
2024/01/27 03:59:20;;;;;;;11.60;5.20;;;3.20;99.90;;;;;;5140311;27;20398;-58
2024/01/27 04:01:47;;;;;;;14.98;5.57;;;3.20;99.90;;;;;;5140195;27;20103;-59
2024/01/27 04:04:13;;;;;;;12.05;5.30;;;3.20;99.90;;;;;;5140139;27;20035;-59
2024/01/27 04:06:42;;;;;;;11.55;5.15;;;3.20;99.90;;;;;;5122256;27;20027;-59
2024/01/27 04:09:08;;;;;;;12.02;5.40;;;3.20;99.90;;;;;;5140090;27;20035;-59
2024/01/27 04:11:36;;;;;;;12.70;5.00;;;3.20;99.90;;;;;;5139859;27;20046;-59
2024/01/27 04:14:03;;;;;;;8.18;4.80;;;3.20;99.90;;;;;;5122250;27;20031;-59
2024/01/27 04:16:29;;;;;;;18.00;6.00;;;3.20;99.90;;;;;;5139910;27;20110;-59
2024/01/27 04:18:55;;;;;;;10.07;5.40;;;3.10;99.90;;;;;;5122090;27;20389;-59
2024/01/27 04:21:21;;;;;;;11.80;4.85;;;3.10;99.90;;;;;;5121989;27;20088;-59
2024/01/27 04:23:47;;;;;;;15.63;5.72;;;3.00;99.90;;;;;;5139763;27;20035;-59
2024/01/27 04:26:12;;;;;;;14.95;4.88;;;3.00;99.90;;;;;;5139879;27;20050;-59
2024/01/27 04:28:38;;;;;;;17.13;5.40;;;2.90;99.90;;;;;;5139602;27;20114;-59
2024/01/27 04:31:04;;;;;;;17.05;5.22;;;2.90;99.90;;;;;;5139748;27;20023;-59
2024/01/27 04:33:30;;;;;;;15.35;5.43;;;3.00;99.90;;;;;;5139666;27;20335;-59
2024/01/27 04:35:56;;;;;;;15.55;5.45;;;3.00;99.90;;;;;;5121553;27;20124;-59
2024/01/27 04:38:22;;;;;;;14.88;5.72;;;3.10;99.90;;;;;;5121646;27;20314;-59
2024/01/27 04:40:49;;;;;;;12.77;5.65;;;3.00;99.90;;;;;;5139448;27;20088;-60
2024/01/27 04:43:16;;;;;;;11.35;5.13;;;3.00;99.90;;;;;;5138903;27;20024;-59
2024/01/27 04:45:42;;;;;;;16.63;6.28;;;2.90;99.90;;;;;;5121499;27;20030;-60
2024/01/27 04:48:08;;;;;;;15.35;4.97;;;2.70;99.90;;;;;;5139364;27;20061;-60
2024/01/27 04:50:34;;;;;;;19.88;6.22;;;2.70;99.90;;;;;;5139261;27;20051;-59
2024/01/27 04:53:00;;;;;;;16.77;5.50;;;2.60;99.90;;;;;;5139373;27;20080;-59
2024/01/27 04:55:26;;;;;;;14.02;5.75;;;2.50;99.90;;;;;;5139264;27;20035;-59
2024/01/27 04:57:53;;;;;;;13.07;5.55;;;2.50;99.90;;;;;;5121478;27;20034;-59
2024/01/27 05:00:19;;;;;;;18.00;6.00;;;2.50;99.90;;;;;;5121396;27;20039;-59
2024/01/27 05:02:46;;;;;;;12.57;5.85;;;2.50;99.90;;;;;;5139323;27;20027;-59
2024/01/27 05:05:12;;;;;;;14.68;5.32;;;2.40;99.90;;;;;;5139016;27;20023;-60
2024/01/27 05:07:38;;;;;;;17.00;6.20;;;2.40;99.90;;;;;;5121042;27;20409;-59
2024/01/27 05:10:05;;;;;;;19.30;6.00;;;2.40;99.90;;;;;;5121102;27;20050;-59
2024/01/27 05:12:31;;;;;;;14.93;5.90;;;2.30;99.90;;;;;;5138826;27;20279;-59
2024/01/27 05:14:57;;;;;;;14.55;5.60;;;2.30;99.90;;;;;;5139045;27;20057;-59
2024/01/27 05:17:23;;;;;;;15.32;5.70;;;2.20;99.90;;;;;;5138757;27;20294;-60
2024/01/27 05:19:51;;;;;;;12.65;6.07;;;2.20;99.90;;;;;;5138783;27;20019;-59
2024/01/27 05:22:16;;;;;;;18.17;5.55;;;2.30;99.90;;;;;;5120937;27;20039;-59
2024/01/27 05:24:43;;;;;;;17.83;6.95;;;2.30;99.90;;;;;;5120938;27;20333;-59
2024/01/27 05:27:09;;;;;;;15.75;6.53;;;2.30;99.90;;;;;;5138620;27;20118;-60
2024/01/27 05:29:37;;;;;;;19.33;6.85;;;2.20;99.90;;;;;;5138579;27;20050;-59
2024/01/27 05:32:03;;;;;;;13.20;6.32;;;2.20;99.90;;;;;;5138380;27;20027;-59
2024/01/27 05:34:29;;;;;;;18.98;6.50;;;2.30;99.90;;;;;;5138441;27;20077;-59
2024/01/27 05:36:55;;;;;;;16.77;6.90;;;2.40;99.90;;;;;;5138415;27;20343;-58
2024/01/27 05:39:21;;;;;;;18.98;7.00;;;2.40;99.90;;;;;;5120259;27;20055;-58
2024/01/27 05:41:46;;;;;;;19.75;6.95;;;2.40;99.90;;;;;;5138325;27;20409;-58
2024/01/27 05:44:12;;;;;;;16.23;6.60;;;2.30;99.90;;;;;;5138268;27;20035;-58
2024/01/27 05:46:39;;;;;;;15.23;6.45;;;2.30;99.90;;;;;;5138158;27;20398;-58
2024/01/27 05:49:04;;;;;;;12.68;6.88;;;2.30;99.90;;;;;;5138213;27;20062;-58
2024/01/27 05:51:30;;;;;;;15.82;7.05;;;2.20;99.90;;;;;;5138077;27;20399;-58
2024/01/27 05:53:56;;;;;;;16.58;6.90;;;2.20;99.90;;;;;;5103570;27;20024;-59
2024/01/27 05:56:22;;;;;;;16.98;6.78;;;2.40;99.90;;;;;;5119524;27;20019;-58
2024/01/27 05:58:49;;;;;;;13.20;6.35;;;2.30;99.90;;;;;;5120109;27;20031;-58
2024/01/27 06:01:17;;;;;;;16.20;7.40;;;2.40;99.90;;;;;;5120061;27;20031;-58
2024/01/27 06:03:44;;;;;;;14.00;6.75;;;2.30;99.90;;;;;;5120102;27;20023;-58
2024/01/27 06:06:09;;;;;;;15.23;6.60;;;2.20;99.90;;;;;;5119987;27;20038;-58
2024/01/27 06:08:36;;;;;;;20.52;6.68;;;2.10;99.90;;;;;;5137851;27;20027;-59
2024/01/27 06:11:03;;;;;;;19.02;6.85;;;2.10;99.90;;;;;;5137756;27;20133;-58
2024/01/27 06:13:29;;;;;;;18.75;7.55;;;2.00;99.90;;;;;;5137821;27;20134;-58
2024/01/27 06:15:55;;;;;;;17.67;7.25;;;2.00;99.90;;;;;;5119913;28;20084;-59
2024/01/27 06:18:21;;;;;;;18.60;7.07;;;2.00;99.90;;;;;;5137803;28;20267;-59
2024/01/27 06:20:47;;;;;;;15.23;6.90;;;2.00;99.90;;;;;;5137688;28;20035;-59
2024/01/27 06:23:13;;;;;;;18.48;7.82;;;2.00;99.90;;;;;;5137787;28;20023;-59
2024/01/27 06:25:38;;;;;;;18.42;7.65;;;1.90;99.90;;;;;;5137663;28;20062;-59
2024/01/27 06:28:04;;;;;;;14.10;7.00;;;1.90;99.90;;;;;;5137888;28;20031;-59
2024/01/27 06:30:30;;;;;;;16.63;7.85;;;1.90;99.90;;;;;;5137747;28;20344;-59
2024/01/27 06:32:56;;;;;;;14.40;7.20;;;1.90;99.90;;;;;;5119724;28;20334;-59
2024/01/27 06:35:22;;;;;;;16.05;7.13;;;1.90;99.90;;;;;;5119751;28;20110;-59
2024/01/27 06:37:48;;;;;;;18.60;7.70;;;2.00;99.90;;;;;;5137507;28;20146;-59
2024/01/27 06:40:14;;;;;;;20.17;8.18;;;2.00;99.90;;;;;;5102967;28;20032;-59
2024/01/27 06:42:40;;;;;;;17.48;7.70;;;2.10;99.90;;;;;;5137532;28;20061;-59
2024/01/27 06:45:06;;;;;;;17.88;7.70;;;2.10;99.90;;;;;;5137567;28;20070;-59
2024/01/27 06:47:31;;;;;;;13.77;6.95;;;2.10;99.90;;;;;;5119711;28;20035;-59
2024/01/27 06:49:57;;;;;;;19.20;7.97;;;2.10;99.90;;;;;;5137520;28;20049;-59
2024/01/27 06:52:23;;;;;;;17.55;6.90;;;2.10;99.90;;;;;;5137444;28;20036;-59
2024/01/27 06:54:49;;;;;;;20.58;7.85;;;2.10;99.90;;;;;;5137313;28;20063;-59
2024/01/27 06:57:23;;;;;;;16.30;7.30;;;2.00;99.90;;;;;;5119382;28;20019;-59
2024/01/27 06:59:53;;;;;;;17.38;7.43;;;2.00;99.90;;;;;;5137497;28;20023;-59
2024/01/27 07:02:26;;;;;;;17.52;7.38;;;2.10;99.90;;;;;;5137335;28;20042;-59
2024/01/27 07:04:52;;;;;;;16.65;7.80;;;2.00;99.90;;;;;;5137619;28;20031;-58
2024/01/27 07:07:30;;;;;;;16.52;7.50;;;2.00;99.90;;;;;;5139133;27;20294;-59
2024/01/27 07:09:57;;;;;;;15.65;7.57;;;2.00;99.90;;;;;;5141256;27;20337;-59
2024/01/27 07:12:23;;;;;;;16.73;7.68;;;2.10;99.90;;;;;;5123357;27;20042;-60
2024/01/27 07:14:49;;;;;;;18.40;7.65;;;2.10;99.90;;;;;;5141165;27;20560;-59
2024/01/27 07:17:15;;;;;;;15.57;7.82;;;2.00;99.90;;;;;;5141082;27;20035;-59
2024/01/27 07:19:40;;;;;;;20.30;7.72;;;2.00;99.90;;;;;;5141131;27;20312;-60
2024/01/27 07:22:06;;;;;;;16.35;7.90;;;2.00;99.90;;;;;;5141055;27;20035;-59
2024/01/27 07:24:32;;;;;;;16.50;7.88;;;2.00;99.90;;;;;;5140915;27;20050;-60
2024/01/27 07:27:00;;;;;;;18.88;8.20;;;2.00;99.90;;;;;;5122957;27;20027;-59
2024/01/27 07:29:26;;;;;;;20.70;6.97;;;1.90;99.90;;;;;;5140853;27;20059;-59
2024/01/27 07:31:52;;;;;;;22.73;7.63;;;1.90;99.90;;;;;;5140696;27;20027;-59
2024/01/27 07:34:19;;;;;;;14.77;7.82;;;1.90;99.90;;;;;;5140505;27;20267;-60
2024/01/27 07:36:45;;;;;;;16.67;8.02;;;1.80;99.90;;;;;;5122709;27;20385;-60
2024/01/27 07:39:11;;;;;;;15.93;8.40;;;1.80;99.90;;;;;;5119192;28;20079;-60
2024/01/27 07:41:37;;;;;;;20.00;7.72;;;1.80;99.90;;;;;;5120080;28;20092;-59
2024/01/27 07:44:10;;;;;;;16.30;7.30;;;1.90;99.90;;;;;;5119287;28;20114;-58
2024/01/27 07:46:38;;;;;;;18.33;7.57;;;1.90;99.90;;;;;;5120031;28;20027;-59
2024/01/27 07:49:04;;;;;;;20.58;7.53;;;1.90;99.90;;;;;;5120163;28;20276;-60
2024/01/27 07:51:30;;;;;;;17.05;7.70;;;1.90;99.90;;;;;;5119677;28;20062;-60
2024/01/27 07:53:56;;;;;;;20.42;8.13;;;1.90;99.90;;;;;;5119733;28;20299;-60
2024/01/27 07:56:22;;;;;;;18.80;8.63;;;2.00;99.90;;;;;;5119810;28;20019;-60
2024/01/27 07:58:47;;;;;;;21.80;7.57;;;2.20;99.90;;;;;;5119129;28;20031;-60
2024/01/27 08:01:17;;;;;;;14.27;7.68;;;2.20;99.90;;;;;;5119760;28;20041;-60
2024/01/27 08:03:43;;;;;;;20.17;8.52;;;2.30;99.90;;;;;;5119618;28;20034;-60
2024/01/27 08:06:16;;;;;;;15.35;7.57;;;2.20;99.90;;;;;;5120020;28;20044;-61
2024/01/27 08:08:47;;;;;;;17.95;7.50;;;2.30;99.90;;;;;;5119880;28;20263;-58
2024/01/27 08:11:15;;;;;;;22.88;7.40;;;2.40;99.90;;;;;;5119505;28;20043;-59
2024/01/27 08:13:43;;;;;;;19.08;7.93;;;2.40;99.90;;;;;;5119507;28;20084;-59
2024/01/27 08:16:12;;;;;;;15.77;7.47;;;2.30;99.90;;;;;;5119408;28;20058;-59
2024/01/27 08:18:43;;;;;;;23.60;7.82;;;2.30;99.90;;;;;;5117596;28;20032;-59
2024/01/27 08:21:10;;;;;;;18.50;7.45;;;2.40;99.90;;;;;;5119387;28;20031;-59
2024/01/27 08:23:36;;;;;;;21.25;7.18;;;2.40;99.90;;;;;;5119290;28;20299;-59
2024/01/27 08:26:02;;;;;;;17.40;6.93;;;2.40;99.90;;;;;;5118538;28;20031;-59
2024/01/27 08:28:28;;;;;;;20.05;7.57;;;2.50;99.90;;;;;;5119170;28;20031;-59
2024/01/27 08:30:53;;;;;;;22.40;7.80;;;2.50;99.90;;;;;;5119032;28;20422;-59
2024/01/27 08:33:19;;;;;;;21.38;7.40;;;2.60;99.90;;;;;;5119132;28;20043;-59
2024/01/27 08:35:48;;;;;;;18.25;6.90;;;2.60;99.90;;;;;;5119058;28;20020;-59
2024/01/27 08:38:14;;;;;;;19.35;7.15;;;2.60;99.90;;;;;;5126358;27;20291;-59
2024/01/27 08:40:40;;;;;;;17.23;7.63;;;2.70;99.90;;;;;;5139487;27;20038;-59
2024/01/27 08:43:06;;;;;;;19.55;6.55;;;2.80;99.90;;;;;;5121903;27;20035;-59
2024/01/27 08:45:32;;;;;;;21.38;6.97;;;2.80;99.90;;;;;;5121567;27;20070;-59
2024/01/27 08:47:59;;;;;;;13.63;6.40;;;2.80;99.90;;;;;;5139326;27;20302;-59
2024/01/27 08:50:25;;;;;;;17.92;7.07;;;2.80;99.90;;;;;;5139328;27;20114;-59
2024/01/27 08:52:50;;;;;;;21.70;6.45;;;2.80;99.90;;;;;;5139086;27;20110;-59
2024/01/27 08:55:18;;;;;;;17.00;6.68;;;2.80;99.90;;;;;;5121210;27;20047;-59
2024/01/27 08:57:46;;;;;;;18.63;6.57;;;2.90;99.90;;;;;;5121093;27;20019;-60
2024/01/27 09:00:13;;;;;;;22.60;7.05;;;2.90;99.90;;;;;;5121300;27;20028;-59
2024/01/27 09:02:39;;;;;;;16.35;7.30;;;3.00;99.90;;;;;;5138991;27;20042;-60
2024/01/27 09:05:05;;;;;;;17.25;7.00;;;3.20;99.90;;;;;;5138892;27;20039;-59
2024/01/27 09:07:31;;;;;;;15.10;6.57;;;3.20;99.90;;;;;;5138902;27;20276;-59
2024/01/27 09:09:57;;;;;;;15.40;6.95;;;3.20;99.90;;;;;;5121355;27;20046;-59
2024/01/27 09:12:23;;;;;;;16.33;6.57;;;3.30;99.90;;;;;;5138713;27;20444;-59
2024/01/27 09:14:49;;;;;;;12.40;6.38;;;3.20;99.90;;;;;;5139103;27;20043;-59
2024/01/27 09:17:14;;;;;;;15.15;6.05;;;3.30;99.90;;;;;;5138673;27;20390;-59
2024/01/27 09:19:40;;;;;;;19.35;6.68;;;3.30;99.90;;;;;;5120966;27;20027;-59
2024/01/27 09:22:06;;;;;;;20.48;6.55;;;3.40;99.90;;;;;;5138526;27;20038;-58
2024/01/27 09:24:32;;;;;;;18.30;6.90;;;3.50;99.90;;;;;;5138636;27;20022;-58
2024/01/27 09:26:58;;;;;;;15.68;6.68;;;3.50;99.90;;;;;;5138526;27;20336;-60
2024/01/27 09:29:23;;;;;;;18.13;6.57;;;3.50;99.90;;;;;;5138406;27;20035;-59
2024/01/27 09:31:49;;;;;;;16.08;6.90;;;3.60;99.90;;;;;;5138405;27;20390;-58
2024/01/27 09:34:15;;;;;;;20.35;6.40;;;3.70;99.90;;;;;;5138318;27;20402;-60
2024/01/27 09:36:41;;;;;;;17.13;6.28;;;3.80;99.90;;;;;;5138309;27;20078;-58
2024/01/27 09:39:07;;;;;;;14.52;6.80;;;3.90;99.90;;;;;;5120067;27;20120;-59
2024/01/27 09:41:33;;;;;;;18.90;5.95;;;3.90;99.90;;;;;;5138383;27;20031;-58
2024/01/27 09:44:02;;;;;;;21.52;6.05;;;4.00;99.90;;;;;;5138232;27;20027;-58
2024/01/27 09:46:29;;;;;;;16.65;6.15;;;4.10;99.90;;;;;;5138234;27;20031;-59
2024/01/27 09:48:56;;;;;;;11.57;5.82;;;4.20;99.90;;;;;;5138256;27;20031;-58
2024/01/27 09:51:22;;;;;;;16.88;5.68;;;4.20;99.90;;;;;;5120421;27;20100;-58
2024/01/27 09:53:52;;;;;;;17.33;5.45;;;4.30;99.90;;;;;;5138079;27;20028;-60
2024/01/27 09:56:19;;;;;;;23.73;5.65;;;4.40;99.90;;;;;;5138267;27;20030;-59
2024/01/27 09:58:45;;;;;;;13.30;5.40;;;4.50;99.90;;;;;;5138011;27;20300;-59
2024/01/27 10:01:12;;;;;;;14.77;4.93;;;4.60;99.90;;;;;;5138482;27;20435;-60
2024/01/27 10:03:41;;;;;;;20.58;5.32;;;4.70;99.90;;;;;;5138036;27;20019;-59
2024/01/27 10:06:09;;;;;;;14.70;5.07;;;5.00;99.90;;;;;;5137966;27;20118;-59
2024/01/27 10:08:35;;;;;;;16.73;4.75;;;5.20;99.90;;;;;;5137851;27;20020;-58
2024/01/27 10:11:07;;;;;;;13.10;4.00;;;5.40;99.90;;;;;;5137961;27;20032;-58
2024/01/27 10:13:33;;;;;;;13.63;4.57;;;5.60;99.90;;;;;;5137782;27;20118;-59
2024/01/27 10:16:05;;;;;;;12.02;4.47;;;5.70;99.90;;;;;;5137767;27;20064;-59
2024/01/27 10:18:32;;;;;;;10.43;4.15;;;5.90;99.90;;;;;;5137720;28;20035;-59
2024/01/27 10:20:58;;;;;;;16.33;4.20;;;6.10;99.90;;;;;;5137741;28;20061;-58
2024/01/27 10:23:24;;;;;;;11.30;3.90;;;6.10;99.90;;;;;;5137686;28;20059;-59
2024/01/27 10:25:51;;;;;;;10.93;4.00;;;6.40;99.90;;;;;;5137764;28;20107;-59
2024/01/27 10:28:17;;;;;;;16.52;3.78;;;6.50;99.90;;;;;;5137675;28;20042;-59
2024/01/27 10:30:44;;;;;;;13.25;3.35;;;6.70;99.90;;;;;;5137726;28;20031;-57
2024/01/27 10:33:11;;;;;;;10.70;3.45;;;6.90;99.90;;;;;;5119624;28;20402;-58
2024/01/27 10:35:37;;;;;;;13.35;3.60;;;7.00;99.90;;;;;;5119889;28;20046;-58
2024/01/27 10:38:03;;;;;;;15.25;3.63;;;7.20;99.90;;;;;;5137428;28;20039;-59
2024/01/27 10:40:29;;;;;;;11.82;3.13;;;7.10;99.90;;;;;;5137583;28;20030;-58
2024/01/27 10:43:02;;;;;;;14.30;3.90;;;7.20;99.90;;;;;;5140711;27;20043;-58
2024/01/27 10:45:36;;;;;;;12.43;3.55;;;7.30;99.90;;;;;;5141729;27;20050;-57
2024/01/27 10:48:04;;;;;;;14.68;3.13;;;7.50;99.90;;;;;;5142090;27;20042;-58
2024/01/27 10:50:38;;;;;;;8.13;2.78;;;7.70;99.90;;;;;;5141544;27;20062;-58
2024/01/27 10:53:08;;;;;;;12.93;3.05;;;8.00;96.20;;;;;;5123751;27;20031;-58
2024/01/27 10:55:37;;;;;;;10.70;3.45;;;7.90;98.60;;;;;;5124000;27;20345;-60
2024/01/27 10:58:03;;;;;;;16.25;3.17;;;8.00;98.70;;;;;;5141490;27;20031;-58
2024/01/27 11:00:32;;;;;;;9.38;3.05;;;8.60;92.10;;;;;;5141515;27;20042;-58
2024/01/27 11:03:01;;;;;;;11.48;2.60;;;8.90;68.70;;;;;;5141466;27;20033;-57
2024/01/27 11:05:31;;;;;;;13.23;3.05;;;9.10;53.90;;;;;;5141383;27;20126;-59
2024/01/27 11:07:59;;;;;;;10.55;2.75;;;8.80;55.50;;;;;;5124113;27;20115;-58
2024/01/27 11:10:26;;;;;;;9.18;2.47;;;8.70;73.10;;;;;;5141078;27;20046;-58
2024/01/27 11:12:55;;;;;;;11.52;2.53;;;9.20;59.30;;;;;;5123752;27;20088;-59
2024/01/27 11:15:21;;;;;;;8.75;2.45;;;10.10;42.30;;;;;;5141222;27;20016;-57
2024/01/27 11:17:48;;;;;;;9.55;2.50;;;10.40;15.10;;;;;;5141133;27;20027;-59
2024/01/27 11:20:16;;;;;;;10.00;2.78;;;10.60;1.00;;;;;;5141358;27;20451;-58
2024/01/27 11:22:43;;;;;;;12.52;3.00;;;10.70;1.00;;;;;;5140891;27;20035;-58
2024/01/27 11:25:12;;;;;;;15.88;3.30;;;11.10;1.00;;;;;;5141019;27;20417;-57
2024/01/27 11:27:39;;;;;;;10.95;2.42;;;11.20;1.00;;;;;;5140782;27;20058;-58
2024/01/27 11:30:08;;;;;;;10.18;2.70;;;11.00;1.00;;;;;;5140607;27;20426;-58
2024/01/27 11:32:36;;;;;;;10.95;3.35;;;10.80;1.00;;;;;;5122770;27;20035;-58
2024/01/27 11:35:04;;;;;;;12.98;2.85;;;10.70;1.00;;;;;;5141095;27;20459;-57
2024/01/27 11:37:31;;;;;;;11.32;2.83;;;10.20;1.00;;;;;;5140512;27;20027;-58
2024/01/27 11:40:06;;;;;;;6.72;3.03;;;9.50;1.00;;;;;;5106446;27;20426;-58
2024/01/27 11:42:32;;;;;;;11.90;3.92;;;9.20;1.00;;;;;;5122781;27;20062;-58
2024/01/27 11:44:57;;;;;;;13.60;3.35;;;9.20;1.00;;;;;;5140624;27;20027;-58
2024/01/27 11:47:25;;;;;;;14.75;2.80;;;9.10;1.00;;;;;;5140697;27;20035;-60
2024/01/27 11:49:53;;;;;;;12.48;2.95;;;9.40;1.00;;;;;;5140489;27;20428;-58
2024/01/27 11:52:19;;;;;;;12.50;2.72;;;9.70;1.00;;;;;;5140279;27;20058;-58
2024/01/27 11:54:45;;;;;;;12.93;3.00;;;9.90;1.00;;;;;;5139203;27;20019;-58
2024/01/27 11:57:10;;;;;;;16.17;3.33;;;9.70;1.00;;;;;;5140529;27;20031;-57
2024/01/27 11:59:36;;;;;;;9.30;2.35;;;10.00;1.00;;;;;;5140292;27;20052;-57
2024/01/27 12:02:03;;;;;;;14.13;3.10;;;9.90;1.00;;;;;;5140269;27;20402;-57
2024/01/27 12:04:29;;;;;;;12.98;3.03;;;9.60;1.00;;;;;;5140164;27;20053;-57
2024/01/27 12:06:55;;;;;;;8.93;2.55;;;9.50;1.00;;;;;;5140134;27;20035;-57
2024/01/27 12:09:22;;;;;;;9.35;2.78;;;9.30;1.00;;;;;;5140202;27;20402;-57
2024/01/27 12:11:48;;;;;;;9.45;2.85;;;9.20;1.00;;;;;;5139993;27;20099;-57
2024/01/27 12:14:13;;;;;;;8.98;2.50;;;9.40;1.00;;;;;;5139969;27;20023;-57
2024/01/27 12:16:41;;;;;;;12.80;3.10;;;9.70;1.00;;;;;;5122074;27;20049;-58
2024/01/27 12:19:10;;;;;;;12.05;3.70;;;9.70;1.00;;;;;;5139892;27;20070;-58
2024/01/27 12:21:36;;;;;;;12.25;3.17;;;9.60;1.00;;;;;;5139847;27;20035;-57
2024/01/27 12:24:01;;;;;;;16.35;3.28;;;9.50;1.00;;;;;;5139829;27;20027;-58
2024/01/27 12:26:31;;;;;;;15.00;3.50;;;9.50;1.00;;;;;;5121956;27;20046;-57
2024/01/27 12:28:58;;;;;;;13.43;3.47;;;9.70;1.00;;;;;;5139768;27;20035;-57
2024/01/27 12:31:25;;;;;;;19.05;3.47;;;10.10;1.00;;;;;;5121495;27;20027;-58
2024/01/27 12:33:54;;;;;;;12.77;4.03;;;9.90;1.00;;;;;;5139547;27;20015;-59
2024/01/27 12:36:21;;;;;;;13.85;4.20;;;9.40;1.00;;;;;;5121767;27;20027;-58
2024/01/27 12:38:53;;;;;;;10.55;3.45;;;9.00;1.00;;;;;;5139274;27;20452;-58
2024/01/27 12:41:19;;;;;;;13.65;4.13;;;8.90;1.00;;;;;;5122622;27;20115;-57
2024/01/27 12:43:45;;;;;;;12.13;3.92;;;8.90;1.00;;;;;;5121588;27;20023;-59